Time;durP1;ratioP1;P1;durP2;ratioP2;P2;SDS_P1;SDS_P2;PMS_P1;PMS_P2;Temp;Humidity;BMP_temperature;BMP_pressure;BME280_temperature;BME280_humidity;BME280_pressure;Samples;Min_cycle;Max_cycle;Signal;HPM_P1;HPM_P2
2022/09/24 00:02:51;;;;;;;18.50;11.75;;;;;;;;;;6277530;28;20045;-77
2022/09/24 00:05:53;;;;;;;17.23;10.98;;;;;;;;;;6273145;28;20063;-77
2022/09/24 00:08:56;;;;;;;23.27;11.68;;;;;;;;;;6278252;28;20434;-77
2022/09/24 00:11:59;;;;;;;22.52;12.35;;;;;;;;;;6275401;28;20044;-76
2022/09/24 00:15:01;;;;;;;17.73;11.07;;;;;;;;;;6277600;28;20061;-78
2022/09/24 00:18:02;;;;;;;20.50;11.25;;;;;;;;;;6277698;28;20190;-77
2022/09/24 00:21:12;;;;;;;19.75;11.52;;;;;;;;;;6276470;28;20056;-77
2022/09/24 00:26:48;;;;;;;16.58;11.52;;;;;;;;;;6275152;28;20060;-77
2022/09/24 00:27:37;;;;;;;19.48;11.95;;;;;;;;;;6275294;28;20196;-77
2022/09/24 00:30:39;;;;;;;18.23;11.30;;;;;;;;;;6272510;28;20060;-77
2022/09/24 00:33:42;;;;;;;17.27;12.38;;;;;;;;;;6277088;28;20052;-77
2022/09/24 00:36:45;;;;;;;19.33;12.38;;;;;;;;;;6274835;28;20517;-76
2022/09/24 00:39:47;;;;;;;20.33;12.93;;;;;;;;;;6274093;28;20079;-77
2022/09/24 00:42:50;;;;;;;19.15;12.48;;;;;;;;;;6276197;28;20049;-77
2022/09/24 00:45:52;;;;;;;18.50;12.10;;;;;;;;;;6273825;28;20053;-78
2022/09/24 00:48:57;;;;;;;21.50;12.70;;;;;;;;;;6276688;28;20192;-77
2022/09/24 00:51:59;;;;;;;19.73;12.30;;;;;;;;;;6277836;28;20049;-77
2022/09/24 00:55:00;;;;;;;20.63;12.43;;;;;;;;;;6273754;28;20054;-77
2022/09/24 00:58:06;;;;;;;20.00;13.00;;;;;;;;;;6274740;28;20060;-77
2022/09/24 01:01:08;;;;;;;22.30;14.30;;;;;;;;;;6273772;28;20059;-77
2022/09/24 01:04:11;;;;;;;20.02;12.57;;;;;;;;;;6274274;28;20060;-77
2022/09/24 01:07:12;;;;;;;21.90;13.00;;;;;;;;;;6273510;28;20055;-77
2022/09/24 01:10:46;;;;;;;21.77;12.98;;;;;;;;;;6276034;28;20068;-77
2022/09/24 01:14:02;;;;;;;18.45;13.32;;;;;;;;;;6275423;28;20126;-77
2022/09/24 01:17:11;;;;;;;20.45;12.93;;;;;;;;;;6174379;28;20084;-77
2022/09/24 01:20:50;;;;;;;24.85;13.52;;;;;;;;;;6174314;28;20219;-76
2022/09/24 01:24:04;;;;;;;19.90;13.45;;;;;;;;;;6170552;28;20058;-76
2022/09/24 01:27:06;;;;;;;;;;;;;;;;;;6173978;28;20093;-76
2022/09/24 01:30:10;;;;;;;17.08;12.40;;;;;;;;;;6169808;28;19918;-76
2022/09/24 01:33:15;;;;;;;19.48;13.25;;;;;;;;;;6173328;28;20043;-77
2022/09/24 01:36:17;;;;;;;24.50;13.55;;;;;;;;;;6173162;28;20258;-77
2022/09/24 01:39:20;;;;;;;21.55;13.93;;;;;;;;;;6171382;28;20215;-77
2022/09/24 01:42:22;;;;;;;20.42;12.77;;;;;;;;;;6173168;28;20055;-76
2022/09/24 01:45:29;;;;;;;18.02;12.35;;;;;;;;;;6174879;28;20747;-77
2022/09/24 01:48:32;;;;;;;21.52;12.27;;;;;;;;;;6169431;28;20055;-77
2022/09/24 01:51:40;;;;;;;20.00;13.05;;;;;;;;;;6166214;28;20118;-77
2022/09/24 01:54:49;;;;;;;19.92;12.45;;;;;;;;;;6247965;28;20044;-76
2022/09/24 01:57:53;;;;;;;17.20;12.00;;;;;;;;;;6274128;28;20056;-76
2022/09/24 02:01:01;;;;;;;17.60;12.48;;;;;;;;;;6273613;28;20040;-77
2022/09/24 02:04:11;;;;;;;17.63;11.60;;;;;;;;;;6278302;28;20060;-77
2022/09/24 02:07:18;;;;;;;18.75;12.38;;;;;;;;;;6278825;28;20053;-77
2022/09/24 02:10:20;;;;;;;17.42;11.38;;;;;;;;;;6281915;28;20296;-77
2022/09/24 02:13:24;;;;;;;18.00;11.85;;;;;;;;;;6280750;28;20037;-77
2022/09/24 02:16:30;;;;;;;18.42;11.40;;;;;;;;;;6280903;28;20385;-77
2022/09/24 02:19:36;;;;;;;16.48;11.18;;;;;;;;;;6281492;28;20283;-77
2022/09/24 02:22:38;;;;;;;15.98;11.02;;;;;;;;;;6280702;28;20052;-75
2022/09/24 02:25:42;;;;;;;16.30;10.77;;;;;;;;;;6281645;28;20090;-75
2022/09/24 02:28:44;;;;;;;16.23;10.75;;;;;;;;;;6279338;28;20375;-75
2022/09/24 02:31:48;;;;;;;19.13;10.68;;;;;;;;;;6278935;28;20057;-76
2022/09/24 02:34:52;;;;;;;14.07;10.48;;;;;;;;;;6279808;28;20087;-75
2022/09/24 02:37:54;;;;;;;15.07;10.05;;;;;;;;;;6277120;28;20094;-77
2022/09/24 02:40:56;;;;;;;16.25;9.98;;;;;;;;;;6271343;28;20312;-76
2022/09/24 02:43:58;;;;;;;14.70;10.23;;;;;;;;;;6271537;28;20060;-76
2022/09/24 02:47:01;;;;;;;14.95;9.63;;;;;;;;;;6270892;28;20206;-76
2022/09/24 02:50:02;;;;;;;14.45;10.15;;;;;;;;;;6274206;28;20056;-76
2022/09/24 02:53:04;;;;;;;17.83;9.90;;;;;;;;;;6273507;28;20051;-76
2022/09/24 02:56:06;;;;;;;16.85;10.05;;;;;;;;;;6272867;28;20115;-76
2022/09/24 02:59:08;;;;;;;17.20;9.35;;;;;;;;;;6271464;28;20040;-75
2022/09/24 03:02:11;;;;;;;16.25;9.48;;;;;;;;;;6271984;28;20064;-76
2022/09/24 03:05:16;;;;;;;17.02;10.13;;;;;;;;;;6275375;28;20063;-76
2022/09/24 03:08:18;;;;;;;14.25;9.73;;;;;;;;;;6270811;28;20060;-76
2022/09/24 03:11:21;;;;;;;22.10;10.65;;;;;;;;;;6273257;28;20045;-76
2022/09/24 03:14:23;;;;;;;17.50;10.63;;;;;;;;;;6275575;28;20116;-76
2022/09/24 03:17:26;;;;;;;16.05;9.73;;;;;;;;;;6273584;28;20233;-76
2022/09/24 03:20:28;;;;;;;18.98;9.68;;;;;;;;;;6275229;28;20045;-76
2022/09/24 03:23:30;;;;;;;16.83;9.27;;;;;;;;;;6275663;28;20061;-76
2022/09/24 03:26:32;;;;;;;14.70;9.93;;;;;;;;;;6273260;28;20060;-76
2022/09/24 03:32:56;;;;;;;16.83;9.43;;;;;;;;;;6239162;28;20359;-76
2022/09/24 03:35:59;;;;;;;18.23;10.38;;;;;;;;;;6270257;28;20048;-76
2022/09/24 03:39:00;;;;;;;16.80;9.47;;;;;;;;;;6272400;28;20061;-76
2022/09/24 03:42:02;;;;;;;14.65;8.95;;;;;;;;;;6275828;28;20068;-76
2022/09/24 03:45:04;;;;;;;13.05;9.10;;;;;;;;;;6274061;28;20053;-77
2022/09/24 03:48:07;;;;;;;16.00;9.27;;;;;;;;;;6277278;28;20267;-76
2022/09/24 03:51:11;;;;;;;15.80;9.05;;;;;;;;;;6276280;28;20045;-76
2022/09/24 03:54:12;;;;;;;15.27;8.93;;;;;;;;;;6274391;28;20083;-76
2022/09/24 03:57:14;;;;;;;13.63;8.93;;;;;;;;;;6276954;28;20053;-76
2022/09/24 04:00:16;;;;;;;12.73;9.77;;;;;;;;;;6275027;28;20053;-76
2022/09/24 04:03:19;;;;;;;13.23;8.90;;;;;;;;;;6276974;28;20056;-76
2022/09/24 04:06:21;;;;;;;13.73;9.18;;;;;;;;;;6275700;28;20068;-76
2022/09/24 04:09:23;;;;;;;14.52;9.40;;;;;;;;;;6284656;28;20154;-76
2022/09/24 04:12:24;;;;;;;14.43;8.98;;;;;;;;;;6282994;28;20049;-76
2022/09/24 04:15:26;;;;;;;14.00;8.95;;;;;;;;;;6282666;28;20060;-76
2022/09/24 04:18:29;;;;;;;13.02;9.25;;;;;;;;;;6278848;28;20106;-76
2022/09/24 04:21:31;;;;;;;13.30;8.80;;;;;;;;;;6277429;28;20079;-76
2022/09/24 04:24:33;;;;;;;15.50;8.80;;;;;;;;;;6276097;28;20060;-76
2022/09/24 04:27:35;;;;;;;11.50;8.68;;;;;;;;;;6277464;28;21830;-76
2022/09/24 04:30:37;;;;;;;12.32;8.75;;;;;;;;;;6275672;28;20267;-76
2022/09/24 04:33:40;;;;;;;12.80;9.80;;;;;;;;;;6276166;28;20271;-77
2022/09/24 04:36:42;;;;;;;20.20;9.52;;;;;;;;;;6275853;28;20233;-77
2022/09/24 04:39:43;;;;;;;14.40;9.52;;;;;;;;;;6276680;28;20049;-76
2022/09/24 04:42:46;;;;;;;12.35;8.88;;;;;;;;;;6277727;28;20045;-76
2022/09/24 04:45:48;;;;;;;11.68;8.65;;;;;;;;;;6275996;28;20124;-77
2022/09/24 04:48:52;;;;;;;12.05;8.85;;;;;;;;;;6277346;28;20049;-77
2022/09/24 04:51:57;;;;;;;15.07;9.35;;;;;;;;;;6275955;28;20052;-77
2022/09/24 04:54:58;;;;;;;11.55;8.35;;;;;;;;;;6276030;28;20059;-76
2022/09/24 04:58:00;;;;;;;12.80;9.25;;;;;;;;;;6276476;28;20060;-76
2022/09/24 05:01:03;;;;;;;11.35;8.90;;;;;;;;;;6275364;28;20316;-77
2022/09/24 05:04:06;;;;;;;10.80;8.65;;;;;;;;;;6275784;28;20124;-76
2022/09/24 05:07:08;;;;;;;13.25;8.18;;;;;;;;;;6275437;28;20279;-79
2022/09/24 05:10:10;;;;;;;16.30;9.00;;;;;;;;;;6278354;28;20240;-70
2022/09/24 05:13:11;;;;;;;13.82;8.23;;;;;;;;;;6276384;28;20049;-75
2022/09/24 05:16:13;;;;;;;12.85;8.50;;;;;;;;;;6275851;28;20150;-75
2022/09/24 05:19:16;;;;;;;12.05;7.80;;;;;;;;;;6276403;28;20057;-77
2022/09/24 05:22:19;;;;;;;11.45;8.45;;;;;;;;;;6275206;28;20060;-81
2022/09/24 05:25:21;;;;;;;9.23;7.75;;;;;;;;;;6277727;28;20052;-80
2022/09/24 05:28:22;;;;;;;11.43;8.20;;;;;;;;;;6274652;28;20084;-80
2022/09/24 05:31:24;;;;;;;9.60;7.93;;;;;;;;;;6275850;28;20076;-78
2022/09/24 05:34:28;;;;;;;12.13;7.85;;;;;;;;;;6277355;28;20056;-79
2022/09/24 05:37:29;;;;;;;11.55;7.80;;;;;;;;;;6275797;28;20052;-79
2022/09/24 05:40:49;;;;;;;11.32;8.30;;;;;;;;;;6275660;28;20048;-78
2022/09/24 05:43:51;;;;;;;10.77;7.88;;;;;;;;;;6274757;28;20217;-79
2022/09/24 05:46:52;;;;;;;11.55;8.00;;;;;;;;;;6274280;28;20072;-78
2022/09/24 05:49:55;;;;;;;12.25;7.78;;;;;;;;;;6275422;28;21654;-79
2022/09/24 05:52:57;;;;;;;19.73;10.30;;;;;;;;;;6273925;28;20045;-79
2022/09/24 05:55:59;;;;;;;14.85;8.13;;;;;;;;;;6274136;28;20463;-78
2022/09/24 05:59:00;;;;;;;12.63;7.75;;;;;;;;;;6274477;28;20048;-78
2022/09/24 06:02:02;;;;;;;9.48;7.80;;;;;;;;;;6272877;28;20060;-79
2022/09/24 06:05:06;;;;;;;12.35;7.95;;;;;;;;;;6274062;28;20099;-78
2022/09/24 06:08:08;;;;;;;11.68;7.70;;;;;;;;;;6274496;28;20056;-79
2022/09/24 06:11:10;;;;;;;13.35;7.72;;;;;;;;;;6275508;28;20068;-77
2022/09/24 06:14:12;;;;;;;11.10;8.60;;;;;;;;;;6276065;28;20228;-77
2022/09/24 06:17:13;;;;;;;11.57;7.93;;;;;;;;;;6274104;28;20057;-78
2022/09/24 06:20:16;;;;;;;12.98;8.55;;;;;;;;;;6274413;28;20229;-76
2022/09/24 06:23:18;;;;;;;10.15;8.27;;;;;;;;;;6272305;28;20055;-78
2022/09/24 06:26:20;;;;;;;10.80;8.20;;;;;;;;;;6272152;28;20052;-78
2022/09/24 06:29:21;;;;;;;12.90;8.00;;;;;;;;;;6275526;28;20536;-78
2022/09/24 06:32:23;;;;;;;10.45;7.57;;;;;;;;;;6274309;28;20060;-78
2022/09/24 06:35:27;;;;;;;11.85;8.20;;;;;;;;;;6272895;28;20324;-77
2022/09/24 06:38:29;;;;;;;10.32;7.38;;;;;;;;;;6271478;28;20103;-78
2022/09/24 06:41:30;;;;;;;10.90;7.70;;;;;;;;;;6275352;28;20052;-78
2022/09/24 06:44:33;;;;;;;8.30;6.88;;;;;;;;;;6271078;28;20225;-78
2022/09/24 06:47:35;;;;;;;11.25;7.45;;;;;;;;;;6274640;28;20253;-78
2022/09/24 06:50:40;;;;;;;11.25;7.63;;;;;;;;;;6273336;28;20064;-78
2022/09/24 06:53:42;;;;;;;8.52;7.43;;;;;;;;;;6271386;28;20064;-78
2022/09/24 06:56:43;;;;;;;8.95;7.65;;;;;;;;;;6276171;28;20061;-78
2022/09/24 06:59:45;;;;;;;10.02;7.45;;;;;;;;;;6274090;28;20041;-78
2022/09/24 07:02:51;;;;;;;9.73;6.90;;;;;;;;;;6274487;28;20049;-78
2022/09/24 07:05:55;;;;;;;7.78;5.72;;;;;;;;;;6275480;28;20098;-78
2022/09/24 07:08:56;;;;;;;16.15;6.70;;;;;;;;;;6274958;28;20324;-78
2022/09/24 07:12:00;;;;;;;11.13;6.57;;;;;;;;;;6272813;28;20056;-78
2022/09/24 07:15:02;;;;;;;9.43;6.50;;;;;;;;;;6273268;28;20044;-79
2022/09/24 07:18:03;;;;;;;9.57;7.00;;;;;;;;;;6273285;28;20052;-78
2022/09/24 07:21:06;;;;;;;9.98;6.82;;;;;;;;;;6276076;28;20036;-80
2022/09/24 07:24:08;;;;;;;11.20;7.13;;;;;;;;;;6270844;28;21229;-79
2022/09/24 07:27:10;;;;;;;9.13;6.75;;;;;;;;;;6272369;28;20094;-76
2022/09/24 07:30:12;;;;;;;9.32;6.72;;;;;;;;;;6273577;28;20790;-72
2022/09/24 07:33:14;;;;;;;10.88;6.57;;;;;;;;;;6273246;28;20382;-75
2022/09/24 07:36:17;;;;;;;8.50;6.38;;;;;;;;;;6273502;28;20060;-79
2022/09/24 07:39:19;;;;;;;8.68;6.20;;;;;;;;;;6273453;28;20106;-77
2022/09/24 07:42:21;;;;;;;9.40;6.70;;;;;;;;;;6273047;28;20295;-80
2022/09/24 07:45:23;;;;;;;7.07;6.15;;;;;;;;;;6277808;28;20048;-80
2022/09/24 07:48:25;;;;;;;8.50;5.85;;;;;;;;;;6276935;28;20045;-81
2022/09/24 07:51:28;;;;;;;7.28;6.43;;;;;;;;;;6273372;28;20053;-78
2022/09/24 07:54:30;;;;;;;11.23;6.53;;;;;;;;;;6273446;28;20044;-81
2022/09/24 07:57:32;;;;;;;9.07;6.80;;;;;;;;;;6274333;28;20048;-81
2022/09/24 08:00:33;;;;;;;8.95;6.63;;;;;;;;;;6270081;28;20053;-78
2022/09/24 08:03:35;;;;;;;8.70;6.32;;;;;;;;;;6272290;28;20057;-80
2022/09/24 08:06:38;;;;;;;7.63;6.55;;;;;;;;;;6270816;28;20061;-81
2022/09/24 08:09:40;;;;;;;20.70;7.00;;;;;;;;;;6271482;28;20060;-81
2022/09/24 08:12:42;;;;;;;8.25;6.00;;;;;;;;;;6270164;28;20463;-81
2022/09/24 08:15:43;;;;;;;9.82;6.38;;;;;;;;;;6272505;28;20320;-81
2022/09/24 08:18:45;;;;;;;8.32;6.28;;;;;;;;;;6272360;28;20064;-81
2022/09/24 08:21:48;;;;;;;8.48;6.90;;;;;;;;;;6271438;28;20053;-80
2022/09/24 08:24:50;;;;;;;7.65;6.85;;;;;;;;;;6272273;28;20045;-80
2022/09/24 08:27:52;;;;;;;9.85;6.90;;;;;;;;;;6280419;28;20056;-75
2022/09/24 08:30:57;;;;;;;9.98;6.82;;;;;;;;;;6278399;28;20060;-78
2022/09/24 08:33:59;;;;;;;10.23;6.47;;;;;;;;;;6282467;28;20056;-80
2022/09/24 08:37:02;;;;;;;10.65;7.28;;;;;;;;;;6277035;28;20057;-80
2022/09/24 08:40:05;;;;;;;10.13;8.15;;;;;;;;;;6278640;28;20106;-80
2022/09/24 08:43:17;;;;;;;11.70;7.37;;;;;;;;;;6274974;28;20041;-78
2022/09/24 08:49:44;;;;;;;10.85;8.25;;;;;;;;;;6278168;28;20056;-78
2022/09/24 08:53:11;;;;;;;11.15;7.45;;;;;;;;;;6272991;28;20049;-79
2022/09/24 08:56:14;;;;;;;9.75;7.90;;;;;;;;;;6271137;28;20232;-78
2022/09/24 08:59:29;;;;;;;12.82;8.65;;;;;;;;;;6276919;28;20275;-78
2022/09/24 09:02:37;;;;;;;11.85;8.55;;;;;;;;;;6275720;28;20316;-79
2022/09/24 09:05:51;;;;;;;10.77;8.43;;;;;;;;;;6276805;28;20080;-79
2022/09/24 09:09:02;;;;;;;13.00;9.25;;;;;;;;;;6274242;28;20055;-78
2022/09/24 09:12:08;;;;;;;12.00;9.45;;;;;;;;;;6275146;28;20229;-79
2022/09/24 09:15:12;;;;;;;13.75;8.90;;;;;;;;;;6276856;28;20060;-78
2022/09/24 09:18:16;;;;;;;11.38;9.05;;;;;;;;;;6272886;28;20267;-78
2022/09/24 09:21:26;;;;;;;11.43;8.95;;;;;;;;;;6274665;28;20132;-79
2022/09/24 09:24:36;;;;;;;10.55;9.10;;;;;;;;;;6275561;28;20241;-79
2022/09/24 09:27:37;;;;;;;12.32;9.20;;;;;;;;;;6274608;28;20118;-78
2022/09/24 09:30:46;;;;;;;10.50;8.05;;;;;;;;;;6275395;28;20367;-78
2022/09/24 09:34:00;;;;;;;10.48;7.75;;;;;;;;;;6274689;28;20095;-78
2022/09/24 09:37:14;;;;;;;9.43;7.07;;;;;;;;;;6274532;28;20052;-78
2022/09/24 09:40:27;;;;;;;9.60;7.55;;;;;;;;;;6276339;28;20090;-78
2022/09/24 09:43:29;;;;;;;12.38;7.35;;;;;;;;;;6275915;28;20249;-78
2022/09/24 09:46:33;;;;;;;9.70;7.35;;;;;;;;;;6274875;28;20145;-79
2022/09/24 09:49:37;;;;;;;11.63;7.65;;;;;;;;;;6277739;28;20182;-78
2022/09/24 09:52:39;;;;;;;9.57;8.57;;;;;;;;;;6277460;28;20048;-78
2022/09/24 09:55:42;;;;;;;9.18;8.20;;;;;;;;;;6274721;28;20048;-77
2022/09/24 09:58:46;;;;;;;11.70;8.30;;;;;;;;;;6274824;28;20052;-77
2022/09/24 10:01:47;;;;;;;;;;;;;;;;;;6274951;28;20116;-78
2022/09/24 10:04:53;;;;;;;13.93;9.50;;;;;;;;;;6275002;28;20195;-77
2022/09/24 10:07:56;;;;;;;11.70;9.35;;;;;;;;;;6274761;28;20053;-77
2022/09/24 10:11:02;;;;;;;11.38;9.30;;;;;;;;;;6277002;28;20045;-78
2022/09/24 10:14:04;;;;;;;13.15;10.32;;;;;;;;;;6273226;28;20115;-78
2022/09/24 10:17:06;;;;;;;13.35;11.13;;;;;;;;;;6272698;28;20303;-78
2022/09/24 10:20:10;;;;;;;14.02;11.60;;;;;;;;;;6275068;28;20048;-78
2022/09/24 10:23:18;;;;;;;13.88;10.25;;;;;;;;;;6274525;28;20055;-78
2022/09/24 10:26:21;;;;;;;13.18;10.88;;;;;;;;;;6276501;28;20084;-78
2022/09/24 10:32:44;;;;;;;14.40;11.55;;;;;;;;;;6277290;28;20068;-78
2022/09/24 10:35:46;;;;;;;13.73;11.20;;;;;;;;;;6276770;28;20036;-76
2022/09/24 10:38:48;;;;;;;15.60;12.00;;;;;;;;;;6273589;28;20364;-77
2022/09/24 10:41:53;;;;;;;17.83;13.05;;;;;;;;;;6273623;28;20098;-78
2022/09/24 10:44:55;;;;;;;18.20;13.63;;;;;;;;;;6277369;28;20049;-78
2022/09/24 10:48:07;;;;;;;16.23;12.48;;;;;;;;;;6275158;28;20053;-78
2022/09/24 10:51:16;;;;;;;15.18;12.48;;;;;;;;;;6271700;28;20045;-78
2022/09/24 10:54:33;;;;;;;16.35;11.32;;;;;;;;;;6271577;28;20276;-78
2022/09/24 10:57:42;;;;;;;14.52;12.35;;;;;;;;;;6274047;28;20060;-77
2022/09/24 11:00:51;;;;;;;15.23;12.27;;;;;;;;;;6273006;28;20060;-78
2022/09/24 11:04:02;;;;;;;16.00;12.35;;;;;;;;;;6271841;28;20061;-78
2022/09/24 11:07:30;;;;;;;17.13;11.98;;;;;;;;;;6274745;28;20087;-78
2022/09/24 11:10:53;;;;;;;15.60;11.95;;;;;;;;;;6272972;28;20045;-78
2022/09/24 11:14:04;;;;;;;19.05;12.98;;;;;;;;;;6274826;28;20119;-77
2022/09/24 11:17:20;;;;;;;15.20;12.95;;;;;;;;;;6273889;28;20097;-78
2022/09/24 11:20:27;;;;;;;15.55;12.02;;;;;;;;;;6269941;28;20280;-78
2022/09/24 11:23:50;;;;;;;16.08;12.43;;;;;;;;;;6274480;28;20055;-79
2022/09/24 11:27:00;;;;;;;16.98;13.30;;;;;;;;;;6271521;28;20048;-79
2022/09/24 11:30:10;;;;;;;15.07;12.98;;;;;;;;;;6273184;28;20112;-79
2022/09/24 11:33:24;;;;;;;14.77;12.32;;;;;;;;;;6272719;28;20239;-79
2022/09/24 11:36:35;;;;;;;16.80;12.32;;;;;;;;;;6271924;28;20044;-80
2022/09/24 11:39:50;;;;;;;14.50;11.85;;;;;;;;;;6274464;28;20414;-79
2022/09/24 11:43:01;;;;;;;17.50;12.48;;;;;;;;;;6270429;28;20041;-80
2022/09/24 11:46:14;;;;;;;18.33;13.10;;;;;;;;;;6272051;28;20094;-79
2022/09/24 11:49:32;;;;;;;14.48;11.48;;;;;;;;;;6273406;28;20966;-79
2022/09/24 11:52:36;;;;;;;16.33;11.52;;;;;;;;;;6271354;28;20060;-79
2022/09/24 11:55:43;;;;;;;13.75;11.57;;;;;;;;;;6272927;28;20056;-79
2022/09/24 11:58:48;;;;;;;16.90;11.70;;;;;;;;;;6270682;28;20240;-80
2022/09/24 12:01:55;;;;;;;15.30;12.23;;;;;;;;;;6273508;28;20049;-79
2022/09/24 12:05:01;;;;;;;14.73;11.90;;;;;;;;;;6279327;28;20040;-73
2022/09/24 12:08:06;;;;;;;15.65;12.27;;;;;;;;;;6278371;28;20064;-77
2022/09/24 12:11:12;;;;;;;14.65;12.23;;;;;;;;;;6282005;28;20107;-79
2022/09/24 12:14:19;;;;;;;13.93;11.52;;;;;;;;;;6281855;28;20222;-80
2022/09/24 12:17:26;;;;;;;17.75;11.40;;;;;;;;;;6279104;28;20067;-79
2022/09/24 12:20:29;;;;;;;14.27;11.50;;;;;;;;;;6280613;28;20102;-77
2022/09/24 12:23:34;;;;;;;14.93;11.95;;;;;;;;;;6279747;28;20044;-76
2022/09/24 12:26:37;;;;;;;16.45;12.32;;;;;;;;;;6283189;28;20339;-79
2022/09/24 12:33:12;;;;;;;13.82;11.38;;;;;;;;;;6278688;28;20112;-77
2022/09/24 12:36:17;;;;;;;15.68;11.82;;;;;;;;;;6280994;28;20052;-77
2022/09/24 12:39:20;;;;;;;16.92;11.77;;;;;;;;;;6281642;28;20072;-80
2022/09/24 12:42:24;;;;;;;14.02;11.45;;;;;;;;;;6283049;28;20048;-81
2022/09/24 12:45:27;;;;;;;15.13;12.32;;;;;;;;;;6279474;28;20056;-80
2022/09/24 12:48:33;;;;;;;13.57;12.07;;;;;;;;;;6280299;28;20228;-80
2022/09/24 12:51:36;;;;;;;14.50;11.35;;;;;;;;;;6282063;28;20053;-80
2022/09/24 12:54:39;;;;;;;15.27;11.35;;;;;;;;;;6278507;28;20240;-79
2022/09/24 12:57:42;;;;;;;13.48;11.35;;;;;;;;;;6270660;28;20061;-80
2022/09/24 13:00:46;;;;;;;14.15;11.77;;;;;;;;;;6275800;28;20060;-80
2022/09/24 13:04:05;;;;;;;15.52;12.65;;;;;;;;;;6278071;28;20057;-80
2022/09/24 13:07:28;;;;;;;14.32;11.57;;;;;;;;;;6269923;28;20040;-79
2022/09/24 13:10:31;;;;;;;13.43;12.02;;;;;;;;;;6265382;28;20059;-81
2022/09/24 13:13:35;;;;;;;14.60;11.57;;;;;;;;;;6278379;28;20118;-81
2022/09/24 13:16:41;;;;;;;13.55;11.20;;;;;;;;;;6280374;28;20455;-81
2022/09/24 13:19:47;;;;;;;12.18;9.85;;;;;;;;;;6280220;28;20103;-81
2022/09/24 13:22:56;;;;;;;12.70;9.98;;;;;;;;;;6278565;28;20068;-81
2022/09/24 13:26:01;;;;;;;12.27;9.70;;;;;;;;;;6278800;28;20095;-83
2022/09/24 13:29:04;;;;;;;12.48;10.07;;;;;;;;;;6281547;28;20295;-80
2022/09/24 13:32:08;;;;;;;11.73;10.50;;;;;;;;;;6281165;28;20288;-80
2022/09/24 13:35:11;;;;;;;;;;;;;;;;;;6279121;28;20447;-81
2022/09/24 13:38:18;;;;;;;12.97;10.67;;;;;;;;;;6281407;28;19917;-81
2022/09/24 13:41:29;;;;;;;14.25;11.07;;;;;;;;;;6278762;28;20291;-81
2022/09/24 13:44:33;;;;;;;13.18;11.13;;;;;;;;;;6273073;28;20052;-81
2022/09/24 13:47:37;;;;;;;13.30;11.30;;;;;;;;;;6275696;28;20110;-81
2022/09/24 13:50:45;;;;;;;12.68;10.95;;;;;;;;;;6274356;28;20155;-81
2022/09/24 13:53:49;;;;;;;14.98;11.55;;;;;;;;;;6272950;28;20441;-81
2022/09/24 13:56:59;;;;;;;15.02;12.15;;;;;;;;;;6274393;28;20049;-81
2022/09/24 14:00:05;;;;;;;13.02;11.52;;;;;;;;;;6274098;28;20068;-80
2022/09/24 14:03:20;;;;;;;16.70;11.95;;;;;;;;;;6276691;28;20053;-81
2022/09/24 14:06:33;;;;;;;14.25;12.48;;;;;;;;;;6277258;28;20336;-80
2022/09/24 14:09:36;;;;;;;14.07;12.43;;;;;;;;;;6278674;28;20044;-81
2022/09/24 14:12:38;;;;;;;18.80;13.35;;;;;;;;;;6279769;28;20315;-81
2022/09/24 14:15:50;;;;;;;16.90;13.25;;;;;;;;;;6278369;28;20053;-80
2022/09/24 14:19:01;;;;;;;16.48;13.95;;;;;;;;;;6278420;28;20052;-81
2022/09/24 14:22:07;;;;;;;17.40;14.15;;;;;;;;;;6278475;28;20363;-81
2022/09/24 14:25:10;;;;;;;18.10;14.63;;;;;;;;;;6273702;28;20041;-81
2022/09/24 14:28:13;;;;;;;20.13;15.40;;;;;;;;;;6274112;28;20348;-81
2022/09/24 14:31:15;;;;;;;19.27;15.70;;;;;;;;;;6271071;28;20040;-80
2022/09/24 14:34:25;;;;;;;18.60;15.32;;;;;;;;;;6264818;28;20050;-80
2022/09/24 14:37:31;;;;;;;19.08;14.55;;;;;;;;;;6274877;28;20079;-81
2022/09/24 14:40:39;;;;;;;16.25;14.63;;;;;;;;;;6276410;28;20055;-81
2022/09/24 14:43:44;;;;;;;20.70;15.57;;;;;;;;;;6272998;28;20116;-81
2022/09/24 14:46:48;;;;;;;18.10;15.82;;;;;;;;;;6272193;28;20394;-82
2022/09/24 14:49:50;;;;;;;18.85;15.27;;;;;;;;;;6274599;28;20048;-82
2022/09/24 14:52:59;;;;;;;19.75;16.23;;;;;;;;;;6273565;28;20048;-81
2022/09/24 14:56:02;;;;;;;20.63;16.10;;;;;;;;;;6273361;28;20045;-80
2022/09/24 14:59:14;;;;;;;20.13;16.52;;;;;;;;;;6275660;28;20049;-81
2022/09/24 15:02:27;;;;;;;21.13;17.73;;;;;;;;;;6274377;28;20056;-81
2022/09/24 15:05:29;;;;;;;18.50;16.50;;;;;;;;;;6275633;28;20060;-82
2022/09/24 15:08:32;;;;;;;17.10;15.30;;;;;;;;;;6277356;28;20102;-82
2022/09/24 15:11:36;;;;;;;19.00;15.10;;;;;;;;;;6278244;28;20056;-80
2022/09/24 15:14:38;;;;;;;16.73;14.68;;;;;;;;;;6279215;28;20045;-80
2022/09/24 15:17:40;;;;;;;17.05;14.35;;;;;;;;;;6279779;28;20362;-79
2022/09/24 15:20:43;;;;;;;19.02;15.55;;;;;;;;;;6280696;28;20389;-80
2022/09/24 15:23:46;;;;;;;18.67;15.80;;;;;;;;;;6279407;28;20343;-81
2022/09/24 15:26:50;;;;;;;16.38;14.68;;;;;;;;;;6275720;28;20064;-80
2022/09/24 15:29:53;;;;;;;19.08;15.73;;;;;;;;;;6275946;28;20046;-79
2022/09/24 15:32:55;;;;;;;19.23;15.00;;;;;;;;;;6276256;28;20080;-80
2022/09/24 15:35:56;;;;;;;22.10;16.38;;;;;;;;;;6274970;28;20057;-80
2022/09/24 15:39:02;;;;;;;18.85;15.63;;;;;;;;;;6282589;28;20064;-80
2022/09/24 15:42:03;;;;;;;18.75;16.75;;;;;;;;;;6279675;28;20052;-80
2022/09/24 15:45:13;;;;;;;19.42;16.33;;;;;;;;;;6278214;28;20049;-80
2022/09/24 15:48:15;;;;;;;19.20;15.85;;;;;;;;;;6280511;28;20308;-80
2022/09/24 15:51:19;;;;;;;18.70;15.73;;;;;;;;;;6278930;28;20056;-80
2022/09/24 15:54:23;;;;;;;;;;;;;;;;;;6279206;28;20073;-80
2022/09/24 15:57:25;;;;;;;22.58;16.70;;;;;;;;;;6277984;28;20250;-80
2022/09/24 16:00:27;;;;;;;20.80;18.60;;;;;;;;;;6278592;28;20174;-80
2022/09/24 16:03:30;;;;;;;22.42;20.02;;;;;;;;;;6276317;28;20049;-80
2022/09/24 16:06:32;;;;;;;26.13;19.00;;;;;;;;;;6277677;28;20213;-80
2022/09/24 16:09:35;;;;;;;21.75;17.95;;;;;;;;;;6279651;28;20287;-81
2022/09/24 16:12:37;;;;;;;19.38;17.27;;;;;;;;;;6276769;28;20057;-81
2022/09/24 16:15:39;;;;;;;25.38;20.70;;;;;;;;;;6278219;28;20052;-81
2022/09/24 16:18:41;;;;;;;22.15;18.20;;;;;;;;;;6276188;28;20220;-80
2022/09/24 16:21:42;;;;;;;20.88;18.67;;;;;;;;;;6274742;28;20344;-81
2022/09/24 16:24:45;;;;;;;21.98;18.15;;;;;;;;;;6277298;28;20102;-81
2022/09/24 16:27:47;;;;;;;20.92;18.20;;;;;;;;;;6276715;28;20049;-80
2022/09/24 16:30:49;;;;;;;21.58;18.58;;;;;;;;;;6275407;28;20061;-83
2022/09/24 16:33:50;;;;;;;21.73;19.13;;;;;;;;;;6274915;28;20081;-82
2022/09/24 16:36:52;;;;;;;21.80;19.48;;;;;;;;;;6275947;28;20056;-82
2022/09/24 16:39:55;;;;;;;22.02;19.10;;;;;;;;;;6276409;28;20057;-82
2022/09/24 16:42:57;;;;;;;23.50;20.13;;;;;;;;;;6274172;28;20069;-82
2022/09/24 16:46:02;;;;;;;21.65;19.33;;;;;;;;;;6276963;28;20139;-82
2022/09/24 16:49:04;;;;;;;21.80;18.50;;;;;;;;;;6274405;28;20340;-81
2022/09/24 16:52:06;;;;;;;23.88;19.98;;;;;;;;;;6275642;28;20048;-81
2022/09/24 16:55:09;;;;;;;26.55;20.98;;;;;;;;;;6276197;28;20061;-81
2022/09/24 16:58:11;;;;;;;;;;;;;;;;;;6274939;28;20049;-81
2022/09/24 17:01:14;;;;;;;25.33;19.45;;;;;;;;;;6277707;28;20100;-82
2022/09/24 17:04:16;;;;;;;22.90;19.02;;;;;;;;;;6283175;28;20124;-82
2022/09/24 17:07:17;;;;;;;23.70;19.58;;;;;;;;;;6283357;28;20340;-82
2022/09/24 17:10:22;;;;;;;23.02;20.00;;;;;;;;;;6283357;28;20055;-81
2022/09/24 17:13:24;;;;;;;24.50;19.85;;;;;;;;;;6276959;28;20112;-81
2022/09/24 17:16:26;;;;;;;24.02;20.63;;;;;;;;;;6274357;28;20228;-81
2022/09/24 17:19:28;;;;;;;27.75;22.50;;;;;;;;;;6273340;28;20057;-81
2022/09/24 17:22:29;;;;;;;30.45;24.52;;;;;;;;;;6273098;28;20115;-83
2022/09/24 17:25:32;;;;;;;28.73;23.98;;;;;;;;;;6274877;28;20053;-81
2022/09/24 17:28:35;;;;;;;28.63;22.83;;;;;;;;;;6273671;28;20143;-81
2022/09/24 17:31:37;;;;;;;25.30;22.25;;;;;;;;;;6276964;28;20466;-81
2022/09/24 17:34:39;;;;;;;23.83;19.83;;;;;;;;;;6276653;28;20064;-81
2022/09/24 17:37:41;;;;;;;24.58;21.17;;;;;;;;;;6274825;28;20080;-82
2022/09/24 17:40:53;;;;;;;23.23;19.58;;;;;;;;;;6275734;28;20241;-82
2022/09/24 17:43:57;;;;;;;25.92;21.00;;;;;;;;;;6275716;28;20072;-81
2022/09/24 17:47:00;;;;;;;23.48;20.10;;;;;;;;;;6275134;28;20051;-82
2022/09/24 17:50:03;;;;;;;22.48;20.08;;;;;;;;;;6276614;28;20236;-81
2022/09/24 17:53:05;;;;;;;22.87;20.37;;;;;;;;;;6275776;28;20056;-81
2022/09/24 17:56:11;;;;;;;25.88;21.05;;;;;;;;;;6272431;28;20475;-82
2022/09/24 17:59:14;;;;;;;27.08;22.50;;;;;;;;;;6274769;28;20087;-82
2022/09/24 18:02:16;;;;;;;24.80;20.67;;;;;;;;;;6274222;28;21540;-82
2022/09/24 18:05:19;;;;;;;27.48;22.52;;;;;;;;;;6274395;28;20053;-82
2022/09/24 18:08:22;;;;;;;25.85;22.20;;;;;;;;;;6276312;28;20948;-80
2022/09/24 18:11:31;;;;;;;28.48;23.10;;;;;;;;;;6278654;28;20053;-81
2022/09/24 18:14:37;;;;;;;27.83;22.75;;;;;;;;;;6282227;28;20049;-80
2022/09/24 18:17:42;;;;;;;28.40;23.17;;;;;;;;;;6280597;28;20102;-81
2022/09/24 18:20:45;;;;;;;30.80;23.33;;;;;;;;;;6281766;28;20182;-80